createdAt,value
2022-12-22T06:12:27.397Z,100.00
2022-12-22T06:13:46.145Z,100.00
2022-12-22T06:14:52.273Z,100.00
2022-12-22T06:15:56.294Z,100.00
2022-12-22T06:17:00.911Z,100.00
2022-12-22T06:18:04.055Z,100.00
2022-12-22T06:19:10.399Z,100.00
2022-12-22T06:20:15.138Z,100.00
2022-12-22T06:21:23.947Z,100.00
2022-12-22T06:22:26.626Z,100.00
2022-12-22T06:23:35.740Z,100.00
2022-12-22T06:24:49.716Z,100.00
2022-12-22T06:25:58.769Z,100.00
2022-12-22T06:27:12.125Z,100.00
2022-12-22T06:28:19.990Z,100.00
2022-12-22T06:29:22.476Z,100.00
2022-12-22T06:30:32.919Z,100.00
2022-12-22T06:31:31.474Z,100.00
2022-12-22T06:32:40.565Z,100.00
2022-12-22T06:34:33.595Z,100.00
2022-12-22T06:35:52.384Z,100.00
2022-12-22T06:36:57.887Z,100.00
2022-12-22T06:38:13.121Z,100.00
2022-12-22T06:39:11.195Z,100.00
2022-12-22T06:40:26.392Z,100.00
2022-12-22T06:41:34.288Z,100.00
2022-12-22T06:44:24.901Z,100.00
2022-12-22T06:45:30.338Z,100.00
2022-12-22T06:46:41.892Z,100.00
2022-12-22T06:47:55.106Z,100.00
2022-12-22T06:49:01.116Z,100.00
2022-12-22T06:50:14.796Z,100.00
2022-12-22T06:51:23.372Z,100.00
2022-12-22T06:52:30.115Z,100.00
2022-12-22T06:53:36.639Z,100.00
2022-12-22T06:54:44.562Z,100.00
2022-12-22T06:55:53.430Z,100.00
2022-12-22T06:57:02.279Z,100.00
2022-12-22T06:58:09.210Z,100.00
2022-12-22T06:59:19.350Z,100.00
2022-12-22T07:00:25.802Z,100.00
2022-12-22T07:01:36.153Z,100.00
2022-12-22T07:02:44.789Z,100.00
2022-12-22T07:03:54.474Z,100.00
2022-12-22T07:05:01.118Z,100.00
2022-12-22T07:06:11.067Z,100.00
2022-12-22T07:07:16.417Z,100.00
2022-12-22T07:08:22.318Z,100.00
2022-12-22T07:09:35.577Z,100.00
2022-12-22T07:11:08.532Z,100.00
2022-12-22T07:12:18.782Z,100.00
2022-12-22T07:13:25.630Z,100.00
2022-12-22T07:14:32.164Z,100.00
2022-12-22T07:15:36.761Z,100.00
2022-12-22T07:16:48.552Z,100.00
2022-12-22T07:17:56.999Z,100.00
2022-12-22T07:19:02.754Z,100.00
2022-12-22T07:20:14.549Z,100.00
2022-12-22T07:21:21.046Z,100.00
2022-12-22T07:22:30.364Z,100.00
2022-12-22T07:23:34.895Z,100.00
2022-12-22T07:24:37.847Z,100.00
2022-12-22T07:25:42.772Z,100.00
2022-12-22T07:26:57.679Z,100.00
2022-12-22T07:28:06.144Z,100.00
2022-12-22T07:29:10.275Z,100.00
2022-12-22T07:30:20.853Z,100.00
2022-12-22T07:31:24.918Z,100.00
2022-12-22T07:32:47.984Z,100.00
2022-12-22T07:33:54.142Z,100.00
2022-12-22T07:35:10.586Z,100.00
2022-12-22T07:36:17.149Z,100.00
2022-12-22T07:37:25.239Z,100.00
2022-12-22T07:38:37.394Z,100.00
2022-12-22T07:39:43.100Z,100.00
2022-12-22T07:40:51.560Z,100.00
2022-12-22T07:41:53.233Z,100.00
2022-12-22T07:43:02.150Z,100.00
2022-12-22T07:44:10.538Z,100.00
2022-12-22T07:45:18.041Z,100.00
2022-12-22T07:46:23.919Z,100.00
2022-12-22T07:47:35.049Z,100.00
2022-12-22T07:48:37.696Z,100.00
2022-12-22T07:49:40.237Z,100.00
2022-12-22T07:50:44.736Z,100.00
2022-12-22T07:51:50.836Z,100.00
2022-12-22T07:53:08.269Z,100.00
2022-12-22T07:54:14.922Z,100.00
2022-12-22T07:55:20.897Z,100.00
2022-12-22T07:56:36.173Z,100.00
2022-12-22T07:57:42.661Z,100.00
2022-12-22T07:58:45.157Z,100.00
2022-12-22T07:59:48.912Z,100.00
2022-12-22T08:01:03.539Z,100.00
2022-12-22T08:02:09.692Z,100.00
2022-12-22T08:03:15.361Z,100.00
2022-12-22T08:04:21.955Z,100.00
2022-12-22T08:05:25.102Z,100.00
2022-12-22T08:06:28.389Z,100.00
2022-12-22T08:07:30.847Z,100.00
2022-12-22T08:08:34.719Z,100.00
2022-12-22T08:09:43.032Z,100.00
2022-12-22T08:10:47.511Z,100.00
2022-12-22T08:11:53.113Z,100.00
2022-12-22T08:12:59.087Z,100.00
2022-12-22T08:14:04.415Z,100.00
2022-12-22T08:15:17.179Z,100.00
2022-12-22T08:16:19.963Z,100.00
2022-12-22T08:17:26.479Z,100.00
2022-12-22T08:18:29.649Z,99.79
2022-12-22T08:19:32.766Z,99.40
2022-12-22T08:20:36.266Z,99.08
2022-12-22T08:21:39.025Z,99.16
2022-12-22T08:22:44.952Z,99.54
2022-12-22T08:23:53.557Z,99.07
2022-12-22T08:25:07.214Z,99.03
2022-12-22T08:26:27.511Z,98.87
2022-12-22T08:28:02.103Z,98.67
2022-12-22T08:29:15.905Z,98.56
2022-12-22T08:30:25.663Z,98.91
2022-12-22T08:31:32.841Z,99.00
2022-12-22T08:32:40.909Z,98.80
2022-12-22T08:33:47.280Z,98.80
2022-12-22T08:35:01.110Z,99.09
2022-12-22T08:36:08.298Z,98.68
2022-12-22T08:37:25.420Z,98.54
2022-12-22T08:38:32.709Z,98.50
2022-12-22T08:39:39.457Z,98.54
2022-12-22T08:40:45.797Z,98.54
2022-12-22T08:41:52.894Z,98.32
2022-12-22T08:42:59.475Z,98.00
2022-12-22T08:44:07.272Z,97.74
2022-12-22T08:45:10.166Z,97.80
2022-12-22T08:46:15.988Z,97.85
2022-12-22T08:47:23.520Z,97.61
2022-12-22T08:48:27.983Z,97.35
2022-12-22T08:49:32.214Z,96.99
2022-12-22T08:50:36.518Z,96.92
2022-12-22T08:51:48.739Z,97.11
2022-12-22T08:52:52.687Z,97.09
2022-12-22T08:54:05.374Z,96.80
2022-12-22T08:57:55.800Z,96.40
2022-12-22T08:59:07.199Z,96.15
2022-12-22T09:00:28.029Z,96.12
2022-12-22T09:03:18.456Z,96.07
2022-12-22T09:35:10.069Z,92.45
2022-12-22T23:28:20.577Z,100.00
2022-12-22T23:30:52.286Z,100.00
2022-12-22T23:31:54.344Z,100.00
2022-12-22T23:32:56.422Z,100.00
2022-12-22T23:33:58.586Z,100.00
2022-12-22T23:35:00.517Z,100.00
2022-12-22T23:36:04.525Z,100.00
2022-12-22T23:37:06.460Z,100.00
2022-12-22T23:38:09.599Z,100.00
2022-12-22T23:39:11.725Z,100.00
2022-12-22T23:40:50.365Z,100.00
2022-12-22T23:41:19.486Z,100.00
2022-12-22T23:42:21.484Z,100.00
2022-12-22T23:43:23.549Z,100.00
2022-12-22T23:44:25.988Z,100.00
2022-12-22T23:45:29.756Z,100.00
2022-12-22T23:46:32.077Z,100.00
2022-12-22T23:47:34.246Z,100.00
2022-12-22T23:48:37.464Z,100.00
2022-12-22T23:49:39.419Z,100.00
2022-12-22T23:50:47.001Z,100.00
2022-12-22T23:51:48.933Z,100.00
2022-12-22T23:52:53.201Z,100.00
2022-12-22T23:53:59.112Z,100.00
2022-12-22T23:55:01.291Z,100.00
2022-12-22T23:56:04.259Z,100.00
2022-12-22T23:57:06.166Z,100.00
2022-12-22T23:58:08.055Z,100.00
2022-12-22T23:59:09.970Z,100.00
